Aviation Digital Data Service (ADDS)

Output produced by METARs form (0943 UTC 21 November 2017)
found at http://aviationweather.gov/adds/metars/
 
KPGV 210524Z 2106/2206 00000KT P6SM FEW250 
     FM211800 VRB03KT P6SM BKN040 AMD LTD TO CLD VIS AND WIND